sensor_id;sensor_type;location;lat;lon;timestamp;temperature;humidity
11304;DHT22;5707;49.588;12.148;2023-12-14T00:00:20;5.30;99.90
11304;DHT22;5707;49.588;12.148;2023-12-14T00:02:46;5.20;99.90
11304;DHT22;5707;49.588;12.148;2023-12-14T00:05:11;5.20;99.90
11304;DHT22;5707;49.588;12.148;2023-12-14T00:07:37;5.30;99.90
11304;DHT22;5707;49.588;12.148;2023-12-14T00:10:03;5.30;99.90
11304;DHT22;5707;49.588;12.148;2023-12-14T00:12:30;5.20;99.90
11304;DHT22;5707;49.588;12.148;2023-12-14T00:14:56;5.20;99.90
11304;DHT22;5707;49.588;12.148;2023-12-14T00:17:21;5.20;99.90
11304;DHT22;5707;49.588;12.148;2023-12-14T00:19:47;5.20;99.90
11304;DHT22;5707;49.588;12.148;2023-12-14T00:22:12;5.20;99.90
11304;DHT22;5707;49.588;12.148;2023-12-14T00:24:38;5.20;99.90
11304;DHT22;5707;49.588;12.148;2023-12-14T00:27:04;5.20;99.90
11304;DHT22;5707;49.588;12.148;2023-12-14T00:29:29;5.20;99.90
11304;DHT22;5707;49.588;12.148;2023-12-14T00:31:55;5.20;99.90
11304;DHT22;5707;49.588;12.148;2023-12-14T00:34:20;5.20;99.90
11304;DHT22;5707;49.588;12.148;2023-12-14T00:36:46;5.20;99.90
11304;DHT22;5707;49.588;12.148;2023-12-14T00:39:11;5.20;99.90
11304;DHT22;5707;49.588;12.148;2023-12-14T00:41:37;5.20;99.90
11304;DHT22;5707;49.588;12.148;2023-12-14T00:44:03;5.20;99.90
11304;DHT22;5707;49.588;12.148;2023-12-14T00:46:28;5.20;99.90
11304;DHT22;5707;49.588;12.148;2023-12-14T00:48:54;5.20;99.90
11304;DHT22;5707;49.588;12.148;2023-12-14T00:51:20;5.10;99.90
11304;DHT22;5707;49.588;12.148;2023-12-14T00:53:45;5.20;99.90
11304;DHT22;5707;49.588;12.148;2023-12-14T00:56:11;5.10;99.90
11304;DHT22;5707;49.588;12.148;2023-12-14T00:58:36;5.10;99.90
11304;DHT22;5707;49.588;12.148;2023-12-14T01:01:02;5.10;99.90
11304;DHT22;5707;49.588;12.148;2023-12-14T01:03:28;5.10;99.90
11304;DHT22;5707;49.588;12.148;2023-12-14T01:05:53;5.10;99.90
11304;DHT22;5707;49.588;12.148;2023-12-14T01:08:19;5.10;99.90
11304;DHT22;5707;49.588;12.148;2023-12-14T01:10:44;5.10;99.90
11304;DHT22;5707;49.588;12.148;2023-12-14T01:13:10;5.20;99.90
11304;DHT22;5707;49.588;12.148;2023-12-14T01:15:35;5.20;99.90
11304;DHT22;5707;49.588;12.148;2023-12-14T01:18:01;5.20;99.90
11304;DHT22;5707;49.588;12.148;2023-12-14T01:20:26;5.20;99.90
11304;DHT22;5707;49.588;12.148;2023-12-14T01:22:52;5.20;99.90
11304;DHT22;5707;49.588;12.148;2023-12-14T01:25:18;5.20;99.90
11304;DHT22;5707;49.588;12.148;2023-12-14T01:27:43;5.20;99.90
11304;DHT22;5707;49.588;12.148;2023-12-14T01:30:09;5.20;99.90
11304;DHT22;5707;49.588;12.148;2023-12-14T01:32:35;5.20;99.90
11304;DHT22;5707;49.588;12.148;2023-12-14T01:35:00;5.20;99.90
11304;DHT22;5707;49.588;12.148;2023-12-14T01:37:26;5.20;99.90
11304;DHT22;5707;49.588;12.148;2023-12-14T01:39:52;5.10;99.90
11304;DHT22;5707;49.588;12.148;2023-12-14T01:42:17;5.10;99.90
11304;DHT22;5707;49.588;12.148;2023-12-14T01:44:43;5.10;99.90
11304;DHT22;5707;49.588;12.148;2023-12-14T01:47:08;5.20;99.90
11304;DHT22;5707;49.588;12.148;2023-12-14T01:49:34;5.20;99.90
11304;DHT22;5707;49.588;12.148;2023-12-14T01:51:59;5.20;99.90
11304;DHT22;5707;49.588;12.148;2023-12-14T01:54:25;5.20;99.90
11304;DHT22;5707;49.588;12.148;2023-12-14T01:56:50;5.20;99.90
11304;DHT22;5707;49.588;12.148;2023-12-14T01:59:16;5.30;99.90
11304;DHT22;5707;49.588;12.148;2023-12-14T02:01:43;5.30;99.90
11304;DHT22;5707;49.588;12.148;2023-12-14T02:04:10;5.30;99.90
11304;DHT22;5707;49.588;12.148;2023-12-14T02:06:36;5.30;99.90
11304;DHT22;5707;49.588;12.148;2023-12-14T02:09:02;5.30;99.90
11304;DHT22;5707;49.588;12.148;2023-12-14T02:11:27;5.30;99.90
11304;DHT22;5707;49.588;12.148;2023-12-14T02:13:53;5.30;99.90
11304;DHT22;5707;49.588;12.148;2023-12-14T02:16:19;5.40;99.90
11304;DHT22;5707;49.588;12.148;2023-12-14T02:18:45;5.40;99.90
11304;DHT22;5707;49.588;12.148;2023-12-14T02:21:10;5.40;99.90
11304;DHT22;5707;49.588;12.148;2023-12-14T02:23:45;5.40;99.90
11304;DHT22;5707;49.588;12.148;2023-12-14T02:26:12;5.40;99.90
11304;DHT22;5707;49.588;12.148;2023-12-14T02:28:38;5.40;99.90
11304;DHT22;5707;49.588;12.148;2023-12-14T02:31:03;5.40;99.90
11304;DHT22;5707;49.588;12.148;2023-12-14T02:33:29;5.40;99.90
11304;DHT22;5707;49.588;12.148;2023-12-14T02:35:54;5.40;99.90
11304;DHT22;5707;49.588;12.148;2023-12-14T02:38:20;5.40;99.90
11304;DHT22;5707;49.588;12.148;2023-12-14T02:40:46;5.30;99.90
11304;DHT22;5707;49.588;12.148;2023-12-14T02:43:12;5.20;99.90
11304;DHT22;5707;49.588;12.148;2023-12-14T02:45:38;5.00;99.90
11304;DHT22;5707;49.588;12.148;2023-12-14T02:48:03;5.00;99.90
11304;DHT22;5707;49.588;12.148;2023-12-14T02:50:29;4.90;99.90
11304;DHT22;5707;49.588;12.148;2023-12-14T02:52:55;4.80;99.90
11304;DHT22;5707;49.588;12.148;2023-12-14T02:55:21;4.70;99.90
11304;DHT22;5707;49.588;12.148;2023-12-14T02:57:47;4.60;99.90
11304;DHT22;5707;49.588;12.148;2023-12-14T03:00:12;4.50;99.90
11304;DHT22;5707;49.588;12.148;2023-12-14T03:02:38;4.50;99.90
11304;DHT22;5707;49.588;12.148;2023-12-14T03:05:04;4.60;99.90
11304;DHT22;5707;49.588;12.148;2023-12-14T03:07:30;4.60;99.90
11304;DHT22;5707;49.588;12.148;2023-12-14T03:09:55;4.70;99.90
11304;DHT22;5707;49.588;12.148;2023-12-14T03:12:21;4.70;99.90
11304;DHT22;5707;49.588;12.148;2023-12-14T03:14:46;4.70;99.90
11304;DHT22;5707;49.588;12.148;2023-12-14T03:17:12;4.80;99.90
11304;DHT22;5707;49.588;12.148;2023-12-14T03:19:41;4.70;99.90
11304;DHT22;5707;49.588;12.148;2023-12-14T03:22:08;4.80;99.90
11304;DHT22;5707;49.588;12.148;2023-12-14T03:24:35;4.80;99.90
11304;DHT22;5707;49.588;12.148;2023-12-14T03:27:01;4.80;99.90
11304;DHT22;5707;49.588;12.148;2023-12-14T03:29:27;4.70;99.90
11304;DHT22;5707;49.588;12.148;2023-12-14T03:31:53;4.70;99.90
11304;DHT22;5707;49.588;12.148;2023-12-14T03:34:19;4.70;99.90
11304;DHT22;5707;49.588;12.148;2023-12-14T03:36:44;4.70;99.90
11304;DHT22;5707;49.588;12.148;2023-12-14T03:39:10;4.70;99.90
11304;DHT22;5707;49.588;12.148;2023-12-14T03:41:35;4.70;99.90
11304;DHT22;5707;49.588;12.148;2023-12-14T03:44:01;4.70;99.90
11304;DHT22;5707;49.588;12.148;2023-12-14T03:46:27;4.80;99.90
11304;DHT22;5707;49.588;12.148;2023-12-14T03:48:52;4.90;99.90
11304;DHT22;5707;49.588;12.148;2023-12-14T03:51:19;4.90;99.90
11304;DHT22;5707;49.588;12.148;2023-12-14T03:53:45;4.90;99.90
11304;DHT22;5707;49.588;12.148;2023-12-14T03:56:10;4.90;99.90
11304;DHT22;5707;49.588;12.148;2023-12-14T03:58:36;5.00;99.90
11304;DHT22;5707;49.588;12.148;2023-12-14T04:01:01;5.00;99.90
11304;DHT22;5707;49.588;12.148;2023-12-14T04:03:27;5.00;99.90
11304;DHT22;5707;49.588;12.148;2023-12-14T04:05:53;5.00;99.90
11304;DHT22;5707;49.588;12.148;2023-12-14T04:08:18;5.00;99.90
11304;DHT22;5707;49.588;12.148;2023-12-14T04:10:44;4.90;99.90
11304;DHT22;5707;49.588;12.148;2023-12-14T04:13:09;4.90;99.90
11304;DHT22;5707;49.588;12.148;2023-12-14T04:15:35;4.90;99.90
11304;DHT22;5707;49.588;12.148;2023-12-14T04:18:00;4.80;99.90
11304;DHT22;5707;49.588;12.148;2023-12-14T04:20:26;4.80;99.90
11304;DHT22;5707;49.588;12.148;2023-12-14T04:22:52;4.80;99.90
11304;DHT22;5707;49.588;12.148;2023-12-14T04:25:17;4.80;99.90
11304;DHT22;5707;49.588;12.148;2023-12-14T04:27:43;4.90;99.90
11304;DHT22;5707;49.588;12.148;2023-12-14T04:30:08;4.90;99.90
11304;DHT22;5707;49.588;12.148;2023-12-14T04:32:39;5.00;99.90
11304;DHT22;5707;49.588;12.148;2023-12-14T04:35:05;5.00;99.90
11304;DHT22;5707;49.588;12.148;2023-12-14T04:37:31;5.00;99.90
11304;DHT22;5707;49.588;12.148;2023-12-14T04:40:00;5.00;99.90
11304;DHT22;5707;49.588;12.148;2023-12-14T04:42:25;5.10;99.90
11304;DHT22;5707;49.588;12.148;2023-12-14T04:44:51;5.10;99.90
11304;DHT22;5707;49.588;12.148;2023-12-14T04:47:17;5.10;99.90
11304;DHT22;5707;49.588;12.148;2023-12-14T04:49:42;5.10;99.90
11304;DHT22;5707;49.588;12.148;2023-12-14T04:52:08;5.10;99.90
11304;DHT22;5707;49.588;12.148;2023-12-14T04:54:34;5.20;99.90
11304;DHT22;5707;49.588;12.148;2023-12-14T04:57:03;5.10;99.90
11304;DHT22;5707;49.588;12.148;2023-12-14T04:59:29;5.10;99.90
11304;DHT22;5707;49.588;12.148;2023-12-14T05:01:54;5.10;99.90
11304;DHT22;5707;49.588;12.148;2023-12-14T05:04:20;5.10;99.90
11304;DHT22;5707;49.588;12.148;2023-12-14T05:06:45;5.10;99.90
11304;DHT22;5707;49.588;12.148;2023-12-14T05:09:11;5.10;99.90
11304;DHT22;5707;49.588;12.148;2023-12-14T05:11:37;5.10;99.90
11304;DHT22;5707;49.588;12.148;2023-12-14T05:14:04;5.00;99.90
11304;DHT22;5707;49.588;12.148;2023-12-14T05:16:30;5.00;99.90
11304;DHT22;5707;49.588;12.148;2023-12-14T05:18:55;5.00;99.90
11304;DHT22;5707;49.588;12.148;2023-12-14T05:21:22;5.00;99.90
11304;DHT22;5707;49.588;12.148;2023-12-14T05:23:48;5.10;99.90
11304;DHT22;5707;49.588;12.148;2023-12-14T05:26:14;5.00;99.90
11304;DHT22;5707;49.588;12.148;2023-12-14T05:28:40;4.90;99.90
11304;DHT22;5707;49.588;12.148;2023-12-14T05:31:05;4.80;99.90
11304;DHT22;5707;49.588;12.148;2023-12-14T05:33:31;4.70;99.90
11304;DHT22;5707;49.588;12.148;2023-12-14T05:35:59;4.60;99.90
11304;DHT22;5707;49.588;12.148;2023-12-14T05:38:24;4.70;99.90
11304;DHT22;5707;49.588;12.148;2023-12-14T05:40:50;4.70;99.90
11304;DHT22;5707;49.588;12.148;2023-12-14T05:43:15;4.70;99.90
11304;DHT22;5707;49.588;12.148;2023-12-14T05:45:41;4.80;99.90
11304;DHT22;5707;49.588;12.148;2023-12-14T05:48:07;4.80;99.90
11304;DHT22;5707;49.588;12.148;2023-12-14T05:50:32;4.90;99.90
11304;DHT22;5707;49.588;12.148;2023-12-14T05:52:58;4.90;99.90
11304;DHT22;5707;49.588;12.148;2023-12-14T05:55:23;4.90;99.90
11304;DHT22;5707;49.588;12.148;2023-12-14T05:57:49;4.90;99.90
11304;DHT22;5707;49.588;12.148;2023-12-14T06:00:15;4.90;99.90
11304;DHT22;5707;49.588;12.148;2023-12-14T06:02:41;5.00;99.90
11304;DHT22;5707;49.588;12.148;2023-12-14T06:05:07;5.00;99.90
11304;DHT22;5707;49.588;12.148;2023-12-14T06:07:33;5.10;99.90
11304;DHT22;5707;49.588;12.148;2023-12-14T06:09:58;5.00;99.90
11304;DHT22;5707;49.588;12.148;2023-12-14T06:12:24;5.10;99.90
11304;DHT22;5707;49.588;12.148;2023-12-14T06:14:50;5.00;99.90
11304;DHT22;5707;49.588;12.148;2023-12-14T06:17:16;5.00;99.90
11304;DHT22;5707;49.588;12.148;2023-12-14T06:19:42;5.10;99.90
11304;DHT22;5707;49.588;12.148;2023-12-14T06:22:07;5.10;99.90
11304;DHT22;5707;49.588;12.148;2023-12-14T06:24:33;5.00;99.90
11304;DHT22;5707;49.588;12.148;2023-12-14T06:26:59;5.00;99.90
11304;DHT22;5707;49.588;12.148;2023-12-14T06:29:24;5.00;99.90
11304;DHT22;5707;49.588;12.148;2023-12-14T06:31:50;5.00;99.90
11304;DHT22;5707;49.588;12.148;2023-12-14T06:34:16;4.90;99.90
11304;DHT22;5707;49.588;12.148;2023-12-14T06:36:45;4.90;99.90
11304;DHT22;5707;49.588;12.148;2023-12-14T06:39:11;4.90;99.90
11304;DHT22;5707;49.588;12.148;2023-12-14T06:41:37;4.90;99.90
11304;DHT22;5707;49.588;12.148;2023-12-14T06:44:03;4.90;99.90
11304;DHT22;5707;49.588;12.148;2023-12-14T06:46:29;4.90;99.90
11304;DHT22;5707;49.588;12.148;2023-12-14T06:48:54;4.90;99.90
11304;DHT22;5707;49.588;12.148;2023-12-14T06:51:21;5.00;99.90
11304;DHT22;5707;49.588;12.148;2023-12-14T06:53:47;5.00;99.90
11304;DHT22;5707;49.588;12.148;2023-12-14T06:56:13;5.00;99.90
11304;DHT22;5707;49.588;12.148;2023-12-14T06:58:43;5.00;99.90
11304;DHT22;5707;49.588;12.148;2023-12-14T07:01:16;5.00;99.90
11304;DHT22;5707;49.588;12.148;2023-12-14T07:03:43;5.00;99.90
11304;DHT22;5707;49.588;12.148;2023-12-14T07:06:16;5.00;99.90
11304;DHT22;5707;49.588;12.148;2023-12-14T07:08:42;5.00;99.90
11304;DHT22;5707;49.588;12.148;2023-12-14T07:11:08;5.00;99.90
11304;DHT22;5707;49.588;12.148;2023-12-14T07:13:34;5.00;99.90
11304;DHT22;5707;49.588;12.148;2023-12-14T07:16:12;5.00;99.90
11304;DHT22;5707;49.588;12.148;2023-12-14T07:18:39;5.00;99.90
11304;DHT22;5707;49.588;12.148;2023-12-14T07:21:06;5.10;99.90
11304;DHT22;5707;49.588;12.148;2023-12-14T07:23:32;5.10;99.90
11304;DHT22;5707;49.588;12.148;2023-12-14T07:25:58;5.20;99.90
11304;DHT22;5707;49.588;12.148;2023-12-14T07:28:23;5.20;99.90
11304;DHT22;5707;49.588;12.148;2023-12-14T07:30:49;5.20;99.90
11304;DHT22;5707;49.588;12.148;2023-12-14T07:33:15;5.20;99.90
11304;DHT22;5707;49.588;12.148;2023-12-14T07:35:41;5.20;99.90
11304;DHT22;5707;49.588;12.148;2023-12-14T07:38:06;5.20;99.90
11304;DHT22;5707;49.588;12.148;2023-12-14T07:40:32;5.20;99.90
11304;DHT22;5707;49.588;12.148;2023-12-14T07:42:58;5.20;99.90
11304;DHT22;5707;49.588;12.148;2023-12-14T07:45:23;5.20;99.90
11304;DHT22;5707;49.588;12.148;2023-12-14T07:47:49;5.20;99.90
11304;DHT22;5707;49.588;12.148;2023-12-14T07:50:14;5.20;99.90
11304;DHT22;5707;49.588;12.148;2023-12-14T07:52:40;5.30;99.90
11304;DHT22;5707;49.588;12.148;2023-12-14T07:55:06;5.30;99.90
11304;DHT22;5707;49.588;12.148;2023-12-14T07:57:32;5.40;99.90
11304;DHT22;5707;49.588;12.148;2023-12-14T07:59:58;5.40;99.90
11304;DHT22;5707;49.588;12.148;2023-12-14T08:02:23;5.50;99.90
11304;DHT22;5707;49.588;12.148;2023-12-14T08:04:49;5.60;99.90
11304;DHT22;5707;49.588;12.148;2023-12-14T08:07:15;5.90;99.90
11304;DHT22;5707;49.588;12.148;2023-12-14T08:09:40;6.10;99.90
11304;DHT22;5707;49.588;12.148;2023-12-14T08:12:06;6.20;99.90
11304;DHT22;5707;49.588;12.148;2023-12-14T08:14:35;6.20;99.90
11304;DHT22;5707;49.588;12.148;2023-12-14T08:17:03;6.20;99.90
11304;DHT22;5707;49.588;12.148;2023-12-14T08:19:28;6.10;99.90
11304;DHT22;5707;49.588;12.148;2023-12-14T08:21:54;6.00;99.90
11304;DHT22;5707;49.588;12.148;2023-12-14T08:24:20;5.90;99.90
11304;DHT22;5707;49.588;12.148;2023-12-14T08:26:45;5.80;99.90
11304;DHT22;5707;49.588;12.148;2023-12-14T08:29:11;5.70;99.90
11304;DHT22;5707;49.588;12.148;2023-12-14T08:31:36;5.70;99.90
11304;DHT22;5707;49.588;12.148;2023-12-14T08:34:02;5.60;99.90
11304;DHT22;5707;49.588;12.148;2023-12-14T08:36:28;5.60;99.90
11304;DHT22;5707;49.588;12.148;2023-12-14T08:38:54;5.70;99.90
11304;DHT22;5707;49.588;12.148;2023-12-14T08:41:20;5.80;99.90
11304;DHT22;5707;49.588;12.148;2023-12-14T08:43:45;5.90;99.90
11304;DHT22;5707;49.588;12.148;2023-12-14T08:46:11;6.10;99.90
11304;DHT22;5707;49.588;12.148;2023-12-14T08:48:36;6.20;99.90
11304;DHT22;5707;49.588;12.148;2023-12-14T08:51:03;6.30;99.90
11304;DHT22;5707;49.588;12.148;2023-12-14T08:53:29;6.30;99.90
11304;DHT22;5707;49.588;12.148;2023-12-14T08:55:55;6.40;99.90
11304;DHT22;5707;49.588;12.148;2023-12-14T08:58:21;6.60;99.90
11304;DHT22;5707;49.588;12.148;2023-12-14T09:00:46;6.70;99.90
11304;DHT22;5707;49.588;12.148;2023-12-14T09:03:12;6.80;99.90
11304;DHT22;5707;49.588;12.148;2023-12-14T09:05:38;6.70;99.90
11304;DHT22;5707;49.588;12.148;2023-12-14T09:08:07;6.80;99.90
11304;DHT22;5707;49.588;12.148;2023-12-14T09:10:33;6.90;99.90
11304;DHT22;5707;49.588;12.148;2023-12-14T09:12:59;7.20;99.90
11304;DHT22;5707;49.588;12.148;2023-12-14T09:15:25;7.30;99.90
11304;DHT22;5707;49.588;12.148;2023-12-14T09:17:51;7.50;99.90
11304;DHT22;5707;49.588;12.148;2023-12-14T09:20:16;7.50;99.90
11304;DHT22;5707;49.588;12.148;2023-12-14T09:22:42;7.60;99.90
11304;DHT22;5707;49.588;12.148;2023-12-14T09:25:08;7.90;99.90
11304;DHT22;5707;49.588;12.148;2023-12-14T09:27:34;8.20;99.90
11304;DHT22;5707;49.588;12.148;2023-12-14T09:30:00;8.30;99.90
11304;DHT22;5707;49.588;12.148;2023-12-14T09:32:25;8.30;99.90
11304;DHT22;5707;49.588;12.148;2023-12-14T09:34:51;8.20;99.90
11304;DHT22;5707;49.588;12.148;2023-12-14T09:37:17;8.20;99.90
11304;DHT22;5707;49.588;12.148;2023-12-14T09:39:42;8.20;99.90
11304;DHT22;5707;49.588;12.148;2023-12-14T09:42:08;8.10;99.90
11304;DHT22;5707;49.588;12.148;2023-12-14T09:44:34;8.00;99.90
11304;DHT22;5707;49.588;12.148;2023-12-14T09:47:01;8.00;99.90
11304;DHT22;5707;49.588;12.148;2023-12-14T09:49:29;8.10;99.90
11304;DHT22;5707;49.588;12.148;2023-12-14T09:51:59;8.20;99.90
11304;DHT22;5707;49.588;12.148;2023-12-14T09:54:27;8.30;99.90
11304;DHT22;5707;49.588;12.148;2023-12-14T09:56:53;8.30;99.90
11304;DHT22;5707;49.588;12.148;2023-12-14T09:59:20;8.30;99.90
11304;DHT22;5707;49.588;12.148;2023-12-14T10:01:45;8.20;99.90
11304;DHT22;5707;49.588;12.148;2023-12-14T10:04:17;8.10;99.90
11304;DHT22;5707;49.588;12.148;2023-12-14T10:06:44;8.00;99.90
11304;DHT22;5707;49.588;12.148;2023-12-14T10:09:11;7.90;99.90
11304;DHT22;5707;49.588;12.148;2023-12-14T10:11:41;7.90;99.90
11304;DHT22;5707;49.588;12.148;2023-12-14T10:14:25;8.00;99.90
11304;DHT22;5707;49.588;12.148;2023-12-14T10:16:51;8.00;99.90
11304;DHT22;5707;49.588;12.148;2023-12-14T10:19:18;8.00;99.90
11304;DHT22;5707;49.588;12.148;2023-12-14T10:21:46;7.90;99.90
11304;DHT22;5707;49.588;12.148;2023-12-14T10:24:15;7.90;99.90
11304;DHT22;5707;49.588;12.148;2023-12-14T10:26:41;7.90;99.90
11304;DHT22;5707;49.588;12.148;2023-12-14T10:29:07;7.90;99.90
11304;DHT22;5707;49.588;12.148;2023-12-14T10:31:33;7.80;99.90
11304;DHT22;5707;49.588;12.148;2023-12-14T10:34:03;7.90;99.90
11304;DHT22;5707;49.588;12.148;2023-12-14T10:36:29;7.90;99.90
11304;DHT22;5707;49.588;12.148;2023-12-14T10:38:57;7.90;99.90
11304;DHT22;5707;49.588;12.148;2023-12-14T10:41:24;7.90;99.90
11304;DHT22;5707;49.588;12.148;2023-12-14T10:43:51;7.80;99.90
11304;DHT22;5707;49.588;12.148;2023-12-14T10:46:19;7.70;99.90
11304;DHT22;5707;49.588;12.148;2023-12-14T10:48:47;7.70;99.90
11304;DHT22;5707;49.588;12.148;2023-12-14T10:51:14;7.80;99.90
11304;DHT22;5707;49.588;12.148;2023-12-14T10:53:41;8.00;99.90
11304;DHT22;5707;49.588;12.148;2023-12-14T10:56:12;8.10;99.90
11304;DHT22;5707;49.588;12.148;2023-12-14T11:01:14;8.50;99.90
11304;DHT22;5707;49.588;12.148;2023-12-14T11:03:41;8.50;99.90
11304;DHT22;5707;49.588;12.148;2023-12-14T11:06:28;8.50;99.90
11304;DHT22;5707;49.588;12.148;2023-12-14T11:09:06;8.50;99.90
11304;DHT22;5707;49.588;12.148;2023-12-14T11:12:01;8.50;99.90
11304;DHT22;5707;49.588;12.148;2023-12-14T11:14:29;8.60;99.90
11304;DHT22;5707;49.588;12.148;2023-12-14T11:17:06;8.60;99.90
11304;DHT22;5707;49.588;12.148;2023-12-14T11:19:31;8.60;99.90
11304;DHT22;5707;49.588;12.148;2023-12-14T11:22:17;8.50;99.90
11304;DHT22;5707;49.588;12.148;2023-12-14T11:24:53;8.50;99.90
11304;DHT22;5707;49.588;12.148;2023-12-14T11:27:26;8.60;99.90
11304;DHT22;5707;49.588;12.148;2023-12-14T11:29:54;8.70;99.90
11304;DHT22;5707;49.588;12.148;2023-12-14T11:32:19;8.90;99.90
11304;DHT22;5707;49.588;12.148;2023-12-14T11:34:48;9.00;99.90
11304;DHT22;5707;49.588;12.148;2023-12-14T11:37:14;9.00;99.90
11304;DHT22;5707;49.588;12.148;2023-12-14T11:39:39;9.00;99.90
11304;DHT22;5707;49.588;12.148;2023-12-14T11:42:07;9.00;99.90
11304;DHT22;5707;49.588;12.148;2023-12-14T11:44:37;8.90;99.90
11304;DHT22;5707;49.588;12.148;2023-12-14T11:47:02;8.80;99.90
11304;DHT22;5707;49.588;12.148;2023-12-14T11:49:28;8.70;99.90
11304;DHT22;5707;49.588;12.148;2023-12-14T11:51:57;8.70;99.90
11304;DHT22;5707;49.588;12.148;2023-12-14T11:54:23;8.60;99.90
11304;DHT22;5707;49.588;12.148;2023-12-14T11:56:49;8.50;99.90
11304;DHT22;5707;49.588;12.148;2023-12-14T11:59:16;8.30;99.90
11304;DHT22;5707;49.588;12.148;2023-12-14T12:01:59;8.10;99.90
11304;DHT22;5707;49.588;12.148;2023-12-14T12:04:26;7.80;99.90
11304;DHT22;5707;49.588;12.148;2023-12-14T12:07:07;7.70;99.90
11304;DHT22;5707;49.588;12.148;2023-12-14T12:09:35;7.60;99.90
11304;DHT22;5707;49.588;12.148;2023-12-14T12:12:05;7.60;99.90
11304;DHT22;5707;49.588;12.148;2023-12-14T12:14:30;7.50;99.90
11304;DHT22;5707;49.588;12.148;2023-12-14T12:16:56;7.50;99.90
11304;DHT22;5707;49.588;12.148;2023-12-14T12:19:21;7.50;99.90
11304;DHT22;5707;49.588;12.148;2023-12-14T12:21:47;7.50;99.90
11304;DHT22;5707;49.588;12.148;2023-12-14T12:24:12;7.40;99.90
11304;DHT22;5707;49.588;12.148;2023-12-14T12:26:38;7.50;99.90
11304;DHT22;5707;49.588;12.148;2023-12-14T12:29:03;7.60;99.90
11304;DHT22;5707;49.588;12.148;2023-12-14T12:31:31;7.70;99.90
11304;DHT22;5707;49.588;12.148;2023-12-14T12:33:57;7.90;99.90
11304;DHT22;5707;49.588;12.148;2023-12-14T12:36:22;8.00;99.90
11304;DHT22;5707;49.588;12.148;2023-12-14T12:38:48;8.00;99.90
11304;DHT22;5707;49.588;12.148;2023-12-14T12:41:13;8.00;99.90
11304;DHT22;5707;49.588;12.148;2023-12-14T12:43:39;8.10;99.90
11304;DHT22;5707;49.588;12.148;2023-12-14T12:46:05;8.10;99.90
11304;DHT22;5707;49.588;12.148;2023-12-14T12:48:30;8.10;99.90
11304;DHT22;5707;49.588;12.148;2023-12-14T12:50:56;8.00;99.90
11304;DHT22;5707;49.588;12.148;2023-12-14T12:53:21;7.90;99.90
11304;DHT22;5707;49.588;12.148;2023-12-14T12:55:47;7.70;99.90
11304;DHT22;5707;49.588;12.148;2023-12-14T12:58:12;7.60;99.90
11304;DHT22;5707;49.588;12.148;2023-12-14T13:00:40;7.50;99.90
11304;DHT22;5707;49.588;12.148;2023-12-14T13:03:05;7.40;99.90
11304;DHT22;5707;49.588;12.148;2023-12-14T13:05:31;7.40;99.90
11304;DHT22;5707;49.588;12.148;2023-12-14T13:07:56;7.40;99.90
11304;DHT22;5707;49.588;12.148;2023-12-14T13:10:23;7.30;99.90
11304;DHT22;5707;49.588;12.148;2023-12-14T13:12:52;7.30;99.90
11304;DHT22;5707;49.588;12.148;2023-12-14T13:15:18;7.20;99.90
11304;DHT22;5707;49.588;12.148;2023-12-14T13:17:48;7.10;99.90
11304;DHT22;5707;49.588;12.148;2023-12-14T13:20:14;7.10;99.90
11304;DHT22;5707;49.588;12.148;2023-12-14T13:22:39;7.00;99.90
11304;DHT22;5707;49.588;12.148;2023-12-14T13:25:05;7.00;99.90
11304;DHT22;5707;49.588;12.148;2023-12-14T13:27:31;6.90;99.90
11304;DHT22;5707;49.588;12.148;2023-12-14T13:29:57;6.80;99.90
11304;DHT22;5707;49.588;12.148;2023-12-14T13:32:22;6.80;99.90
11304;DHT22;5707;49.588;12.148;2023-12-14T13:34:48;6.70;99.90
11304;DHT22;5707;49.588;12.148;2023-12-14T13:37:14;6.70;99.90
11304;DHT22;5707;49.588;12.148;2023-12-14T13:39:39;6.60;99.90
11304;DHT22;5707;49.588;12.148;2023-12-14T13:42:05;6.60;99.90
11304;DHT22;5707;49.588;12.148;2023-12-14T13:44:34;6.60;99.90
11304;DHT22;5707;49.588;12.148;2023-12-14T13:47:03;6.60;99.90
11304;DHT22;5707;49.588;12.148;2023-12-14T13:49:28;6.60;99.90
11304;DHT22;5707;49.588;12.148;2023-12-14T13:51:54;6.60;99.90
11304;DHT22;5707;49.588;12.148;2023-12-14T13:54:20;6.70;99.90
11304;DHT22;5707;49.588;12.148;2023-12-14T13:56:45;6.70;99.90
11304;DHT22;5707;49.588;12.148;2023-12-14T13:59:11;6.70;99.90
11304;DHT22;5707;49.588;12.148;2023-12-14T14:01:36;6.70;99.90
11304;DHT22;5707;49.588;12.148;2023-12-14T14:04:03;6.60;99.90
11304;DHT22;5707;49.588;12.148;2023-12-14T14:06:29;6.60;99.90
11304;DHT22;5707;49.588;12.148;2023-12-14T14:08:54;6.60;99.90
11304;DHT22;5707;49.588;12.148;2023-12-14T14:11:21;6.50;99.90
11304;DHT22;5707;49.588;12.148;2023-12-14T14:13:47;6.60;99.90
11304;DHT22;5707;49.588;12.148;2023-12-14T14:16:13;6.60;99.90
11304;DHT22;5707;49.588;12.148;2023-12-14T14:18:39;6.50;99.90
11304;DHT22;5707;49.588;12.148;2023-12-14T14:21:04;6.50;99.90
11304;DHT22;5707;49.588;12.148;2023-12-14T14:23:33;6.40;99.90
11304;DHT22;5707;49.588;12.148;2023-12-14T14:25:59;6.40;99.90
11304;DHT22;5707;49.588;12.148;2023-12-14T14:28:25;6.40;99.90
11304;DHT22;5707;49.588;12.148;2023-12-14T14:30:50;6.40;99.90
11304;DHT22;5707;49.588;12.148;2023-12-14T14:33:16;6.40;99.90
11304;DHT22;5707;49.588;12.148;2023-12-14T14:35:45;6.30;99.90
11304;DHT22;5707;49.588;12.148;2023-12-14T14:38:14;6.30;99.90
11304;DHT22;5707;49.588;12.148;2023-12-14T14:40:41;6.30;99.90
11304;DHT22;5707;49.588;12.148;2023-12-14T14:43:08;6.30;99.90
11304;DHT22;5707;49.588;12.148;2023-12-14T14:45:33;6.20;99.90
11304;DHT22;5707;49.588;12.148;2023-12-14T14:47:59;6.20;99.90
11304;DHT22;5707;49.588;12.148;2023-12-14T14:50:25;6.20;99.90
11304;DHT22;5707;49.588;12.148;2023-12-14T14:52:50;6.10;99.90
11304;DHT22;5707;49.588;12.148;2023-12-14T14:55:16;6.10;99.90
11304;DHT22;5707;49.588;12.148;2023-12-14T14:57:41;6.10;99.90
11304;DHT22;5707;49.588;12.148;2023-12-14T15:00:07;6.10;99.90
11304;DHT22;5707;49.588;12.148;2023-12-14T15:02:33;6.00;99.90
11304;DHT22;5707;49.588;12.148;2023-12-14T15:04:59;6.00;99.90
11304;DHT22;5707;49.588;12.148;2023-12-14T15:07:24;5.90;99.90
11304;DHT22;5707;49.588;12.148;2023-12-14T15:09:50;5.90;99.90
11304;DHT22;5707;49.588;12.148;2023-12-14T15:12:15;5.90;99.90
11304;DHT22;5707;49.588;12.148;2023-12-14T15:14:41;5.90;99.90
11304;DHT22;5707;49.588;12.148;2023-12-14T15:17:07;5.80;99.90
11304;DHT22;5707;49.588;12.148;2023-12-14T15:19:32;5.70;99.90
11304;DHT22;5707;49.588;12.148;2023-12-14T15:21:58;5.70;99.90
11304;DHT22;5707;49.588;12.148;2023-12-14T15:24:23;5.60;99.90
11304;DHT22;5707;49.588;12.148;2023-12-14T15:26:49;5.60;99.90
11304;DHT22;5707;49.588;12.148;2023-12-14T15:29:15;5.60;99.90
11304;DHT22;5707;49.588;12.148;2023-12-14T15:31:40;5.60;99.90
11304;DHT22;5707;49.588;12.148;2023-12-14T15:34:06;5.60;99.90
11304;DHT22;5707;49.588;12.148;2023-12-14T15:36:34;5.60;99.90
11304;DHT22;5707;49.588;12.148;2023-12-14T15:39:00;5.50;99.90
11304;DHT22;5707;49.588;12.148;2023-12-14T15:41:26;5.60;99.90